Aeroporto :
LOGIN :

Iscrizione | Disclaimer

   EN    FR    IT 

 










Sommario :    VFR   VFR Marginale   IFR   IFR Intensivo   IFR Molto Intensivo
Visibilità : 
Base nubi : 
>= 8 km
>= 3000ft
5 / 8 km
1000 / 3000 ft
1500m / 5 km
500 / 1000 ft
800 / 1500m
200 / 500 ft
< 800m
< 200 ft
Simboli :   Temporali  Nebbia  Neve Forte  Precipitazioni Forti  Vento > 20 kt
SIGMETs :   Varie  Temporali  Ghiacco  Turbolenza  Onda orograficha  Ceneri Vulcaniche






- Altitudine del aeroporto : 202 ft
- Codice IATA : LGW


EGKK - London Gatwick

ULTIMO METAR :
  • 271420Z 31016KT 9999 SCT033 07/00 Q1003

METARs OBSOLETI :
  • 271350Z 31021G31KT 9999 FEW025 SCT032 07/00 Q1002
  • 271320Z 33016KT 9999 FEW025 SCT030 06/02 Q1001
  • 271250Z 32015KT 9999 SCT013 BKN018 05/02 Q1001
  • 271220Z 32016KT 9999 BKN011 04/03 Q1000
  • 271150Z 34015KT 300V010 9999 BKN012 04/03 Q0999

TAF TAF EGKK
Valido dal 27 a 12 ore il 28 a 18 ore UTC


271108Z 2712/2818 33015KT 9999 SCT020
TEMPO 2712/2718 31018G28KT
PROB30 2712/2713 8000 -RADZ BKN012
BECMG 2718/2721 27008KT
BECMG 2804/2807 18012KT BKN010
TEMPO 2810/2818 19015G25KT 4000 RA BKN006
PROB40
TEMPO 2811/2818 RADZ BKN004



MetMap, La meteo Aeronautica in un colpo d'occhio ! - Copyright ORBIFLY Dicembre 2007 - Disclaimer

ORBIFLY MET'MAP TEAM :

Programmazione e sviluppo : Alexandra Zaïnal
Concezione : Baudouin d'Aumeries
Aiuto per la programmazione : Marc-Olivier Méhu
Supporto tecnico e logistico : Manuel Goepfert
Aiuto per la traduzione : Arnaldo La Scala

Contatto : metmap@orbifly.com




FONTI E CREDITI :

   NOAA